createdAt,value
2018-03-30T00:00:52.058Z,37.00
2018-03-30T00:01:52.201Z,40.60
2018-03-30T00:02:52.348Z,45.60
2018-03-30T00:03:52.489Z,43.30
2018-03-30T00:04:52.632Z,24.60
2018-03-30T00:05:52.782Z,30.90
2018-03-30T00:06:52.924Z,32.00
2018-03-30T00:07:53.066Z,40.20
2018-03-30T00:08:53.211Z,35.10
2018-03-30T00:09:53.356Z,36.10
2018-03-30T00:10:53.507Z,29.00
2018-03-30T00:11:53.651Z,29.10
2018-03-30T00:12:53.798Z,26.90
2018-03-30T00:13:53.938Z,33.40
2018-03-30T00:14:54.081Z,33.80
2018-03-30T00:15:54.226Z,62.50
2018-03-30T00:16:54.373Z,64.60
2018-03-30T00:17:54.519Z,46.60
2018-03-30T00:18:54.664Z,87.60
2018-03-30T00:19:54.817Z,99.50
2018-03-30T00:20:54.958Z,59.90
2018-03-30T00:21:55.099Z,75.40
2018-03-30T00:22:55.243Z,54.40
2018-03-30T00:23:55.388Z,64.70
2018-03-30T00:24:55.535Z,64.20
2018-03-30T00:25:55.682Z,60.30
2018-03-30T00:26:55.840Z,69.70
2018-03-30T00:27:55.987Z,109.60
2018-03-30T00:28:56.132Z,84.80
2018-03-30T00:29:56.277Z,55.70
2018-03-30T00:30:56.421Z,115.10
2018-03-30T00:31:56.575Z,241.90
2018-03-30T00:32:56.722Z,245.10
2018-03-30T00:33:56.865Z,297.40
2018-03-30T00:34:57.013Z,176.10
2018-03-30T00:35:57.154Z,256.30
2018-03-30T00:36:57.299Z,272.70
2018-03-30T00:37:57.443Z,171.40
2018-03-30T00:38:57.585Z,160.20
2018-03-30T00:39:57.738Z,175.10
2018-03-30T00:40:57.871Z,274.60
2018-03-30T00:41:58.014Z,177.50
2018-03-30T00:42:58.159Z,174.20
2018-03-30T00:43:58.303Z,116.60
2018-03-30T00:44:58.450Z,129.30
2018-03-30T00:45:58.596Z,213.60
2018-03-30T00:46:58.739Z,207.20
2018-03-30T00:47:58.891Z,131.30
2018-03-30T00:48:59.032Z,161.50
2018-03-30T00:49:59.179Z,80.50
2018-03-30T00:50:59.322Z,68.10
2018-03-30T00:51:59.469Z,119.20
2018-03-30T00:52:59.614Z,64.50
2018-03-30T00:53:59.759Z,55.00
2018-03-30T00:54:59.905Z,57.80
2018-03-30T00:56:00.048Z,72.30
2018-03-30T00:57:00.194Z,68.00
2018-03-30T00:58:00.338Z,62.10
2018-03-30T00:59:00.484Z,61.70
2018-03-30T01:00:00.630Z,60.30
2018-03-30T01:01:00.776Z,65.80
2018-03-30T01:02:00.927Z,52.60
2018-03-30T01:03:01.064Z,56.60
2018-03-30T01:04:01.211Z,48.80
2018-03-30T01:05:01.357Z,46.20
2018-03-30T01:06:01.500Z,37.70
2018-03-30T01:07:01.646Z,39.90
2018-03-30T01:08:01.793Z,46.60
2018-03-30T01:09:01.935Z,66.70
2018-03-30T01:10:02.126Z,51.60
2018-03-30T01:11:02.226Z,40.40
2018-03-30T01:12:02.370Z,47.40
2018-03-30T01:13:02.517Z,49.00
2018-03-30T01:14:02.661Z,42.00
2018-03-30T01:15:02.805Z,48.50
2018-03-30T01:16:02.956Z,43.10
2018-03-30T01:17:03.097Z,37.80
2018-03-30T01:18:03.239Z,50.20
2018-03-30T01:19:03.386Z,44.70
2018-03-30T01:20:03.530Z,41.00
2018-03-30T01:21:03.674Z,59.50
2018-03-30T01:22:03.818Z,43.60
2018-03-30T01:23:03.964Z,96.90
2018-03-30T01:24:04.109Z,61.50
2018-03-30T01:25:04.255Z,50.50
2018-03-30T01:26:04.405Z,72.10
2018-03-30T01:27:04.544Z,65.70
2018-03-30T01:28:04.690Z,67.30
2018-03-30T01:29:04.834Z,81.90
2018-03-30T01:30:04.981Z,90.70
2018-03-30T01:31:05.128Z,86.50
2018-03-30T01:32:05.269Z,81.60
2018-03-30T01:33:05.414Z,62.40
2018-03-30T01:34:05.556Z,233.10
2018-03-30T01:35:05.698Z,160.80
2018-03-30T01:36:05.843Z,162.50
2018-03-30T01:37:05.987Z,112.50
2018-03-30T01:38:06.136Z,132.10
2018-03-30T01:39:06.275Z,98.20
2018-03-30T01:40:06.421Z,115.40
2018-03-30T01:41:06.570Z,109.80
2018-03-30T01:42:06.710Z,178.80
2018-03-30T01:43:06.856Z,223.10
2018-03-30T01:44:07.002Z,229.00
2018-03-30T01:45:07.147Z,254.40
2018-03-30T01:46:07.292Z,104.50
2018-03-30T01:47:07.438Z,240.50
2018-03-30T01:48:07.581Z,297.50
2018-03-30T01:49:07.725Z,216.30
2018-03-30T01:50:07.870Z,105.20
2018-03-30T01:51:08.014Z,253.20
2018-03-30T01:52:08.159Z,197.80
2018-03-30T01:53:08.310Z,312.80
2018-03-30T01:54:08.453Z,300.50
2018-03-30T01:55:08.591Z,172.30
2018-03-30T01:56:08.740Z,286.50
2018-03-30T01:57:08.883Z,167.00
2018-03-30T01:58:09.030Z,371.60
2018-03-30T01:59:09.173Z,297.50
2018-03-30T02:00:09.317Z,258.60
2018-03-30T02:01:09.464Z,228.10
2018-03-30T02:02:09.609Z,100.00
2018-03-30T02:03:09.755Z,73.20
2018-03-30T02:04:09.900Z,250.00
2018-03-30T02:05:10.046Z,313.00
2018-03-30T02:06:10.190Z,427.90
2018-03-30T02:07:10.336Z,205.20
2018-03-30T02:08:10.491Z,170.00
2018-03-30T02:09:10.626Z,248.70
2018-03-30T02:10:10.769Z,314.40
2018-03-30T02:11:10.918Z,277.70
2018-03-30T02:12:11.061Z,261.70
2018-03-30T02:13:11.206Z,201.60
2018-03-30T02:14:11.349Z,148.70
2018-03-30T02:15:11.495Z,86.80
2018-03-30T02:16:11.640Z,88.70
2018-03-30T02:17:11.785Z,103.00
2018-03-30T02:18:11.931Z,167.70
2018-03-30T02:19:12.078Z,97.10
2018-03-30T02:20:12.276Z,305.50
2018-03-30T02:21:12.368Z,242.60
2018-03-30T02:22:12.515Z,316.50
2018-03-30T02:23:12.660Z,317.10
2018-03-30T02:24:12.803Z,258.00
2018-03-30T02:25:12.949Z,346.50
2018-03-30T02:26:13.095Z,348.50
2018-03-30T02:27:13.241Z,350.60
2018-03-30T02:28:13.386Z,245.20
2018-03-30T02:29:13.529Z,315.70
2018-03-30T02:30:13.685Z,191.70
2018-03-30T02:31:13.828Z,291.90
2018-03-30T02:32:13.969Z,256.50
2018-03-30T02:33:14.116Z,209.60
2018-03-30T02:34:14.258Z,217.40
2018-03-30T02:35:14.410Z,334.70
2018-03-30T02:36:14.546Z,397.10
2018-03-30T02:37:14.692Z,330.70
2018-03-30T02:38:14.835Z,329.30
2018-03-30T02:39:14.983Z,287.70
2018-03-30T02:40:15.135Z,391.00
2018-03-30T02:41:15.275Z,386.20
2018-03-30T02:42:15.418Z,424.40
2018-03-30T02:43:15.565Z,242.70
2018-03-30T02:44:15.712Z,220.60
2018-03-30T02:45:15.856Z,264.00
2018-03-30T02:46:16.001Z,295.90
2018-03-30T02:47:16.143Z,336.10
2018-03-30T02:48:16.288Z,451.10
2018-03-30T02:49:16.435Z,373.50
2018-03-30T02:50:16.603Z,347.00
2018-03-30T02:51:16.726Z,363.40
2018-03-30T02:52:16.875Z,349.20
2018-03-30T02:53:17.021Z,390.70
2018-03-30T02:54:17.166Z,479.60
2018-03-30T02:55:17.310Z,530.20
2018-03-30T02:56:17.456Z,565.10
2018-03-30T02:57:17.600Z,541.40
2018-03-30T02:58:17.746Z,476.10
2018-03-30T02:59:17.891Z,459.20
2018-03-30T03:00:18.036Z,434.20
2018-03-30T03:01:18.179Z,330.10
2018-03-30T03:02:18.323Z,359.90
2018-03-30T03:03:18.469Z,272.10
2018-03-30T03:04:18.616Z,206.10
2018-03-30T03:05:18.761Z,183.90
2018-03-30T03:06:18.909Z,180.50
2018-03-30T03:07:19.054Z,408.10
2018-03-30T03:08:19.197Z,224.80
2018-03-30T03:09:19.343Z,354.50
2018-03-30T03:10:19.489Z,174.50
2018-03-30T03:11:19.635Z,228.70
2018-03-30T03:12:19.777Z,158.40
2018-03-30T03:13:19.925Z,219.30
2018-03-30T03:14:20.067Z,114.80
2018-03-30T03:15:20.216Z,55.50
2018-03-30T03:16:20.366Z,108.90
2018-03-30T03:17:20.505Z,167.80
2018-03-30T03:18:20.647Z,68.20
2018-03-30T03:19:20.795Z,80.20
2018-03-30T03:20:20.939Z,141.10
2018-03-30T03:21:21.091Z,91.30
2018-03-30T03:22:21.229Z,112.10
2018-03-30T03:23:21.375Z,74.60
2018-03-30T03:24:21.520Z,106.30
2018-03-30T03:25:21.667Z,162.50
2018-03-30T03:26:21.807Z,182.30
2018-03-30T03:27:21.965Z,204.00
2018-03-30T03:28:22.109Z,478.90
2018-03-30T03:29:22.255Z,303.40
2018-03-30T03:30:22.401Z,468.00
2018-03-30T03:31:22.545Z,548.00
2018-03-30T03:32:22.688Z,463.70
2018-03-30T03:33:22.836Z,403.10
2018-03-30T03:34:22.982Z,271.60
2018-03-30T03:35:23.127Z,286.50
2018-03-30T03:36:23.277Z,194.90
2018-03-30T03:37:23.422Z,201.10
2018-03-30T03:38:23.569Z,173.30
2018-03-30T03:39:23.709Z,188.20
2018-03-30T03:40:23.855Z,54.00
2018-03-30T03:41:23.997Z,90.50
2018-03-30T03:42:24.146Z,89.80
2018-03-30T03:43:24.290Z,140.30
2018-03-30T03:44:24.486Z,113.70
2018-03-30T03:45:24.579Z,188.80
2018-03-30T03:46:24.726Z,206.90
2018-03-30T03:47:24.871Z,158.80
2018-03-30T03:48:25.015Z,218.00
2018-03-30T03:49:25.177Z,204.60
2018-03-30T03:50:25.312Z,219.80
2018-03-30T03:51:25.464Z,403.50
2018-03-30T03:52:25.602Z,295.70
2018-03-30T03:53:25.743Z,340.90
2018-03-30T03:54:25.891Z,331.20
2018-03-30T03:55:26.040Z,233.60
2018-03-30T03:56:26.183Z,276.00
2018-03-30T03:57:26.328Z,549.30
2018-03-30T03:58:26.474Z,437.30
2018-03-30T03:59:26.633Z,391.70
2018-03-30T04:00:26.768Z,157.40
2018-03-30T04:01:26.910Z,194.80
2018-03-30T04:02:27.056Z,79.40
2018-03-30T04:03:27.200Z,344.80
2018-03-30T04:04:27.343Z,253.00
2018-03-30T04:05:27.490Z,298.40
2018-03-30T04:06:27.641Z,265.40
2018-03-30T04:07:27.780Z,208.80
2018-03-30T04:08:27.927Z,272.30
2018-03-30T04:09:28.071Z,186.00
2018-03-30T04:10:28.216Z,195.20
2018-03-30T04:11:28.364Z,347.70
2018-03-30T04:12:28.508Z,190.50
2018-03-30T04:13:28.654Z,213.60
2018-03-30T04:14:28.798Z,144.10
2018-03-30T04:15:28.943Z,248.90
2018-03-30T04:16:29.087Z,225.20
2018-03-30T04:17:29.231Z,194.40
2018-03-30T04:18:29.375Z,287.10
2018-03-30T04:19:29.520Z,353.40
2018-03-30T04:20:29.663Z,367.30
2018-03-30T04:21:29.810Z,371.10
2018-03-30T04:22:29.954Z,365.30
2018-03-30T04:23:30.098Z,297.10
2018-03-30T04:24:30.246Z,292.30
2018-03-30T04:25:30.399Z,382.20
2018-03-30T04:26:30.537Z,417.80
2018-03-30T04:27:30.685Z,215.50
2018-03-30T04:28:30.831Z,280.70
2018-03-30T04:29:30.980Z,351.90
2018-03-30T04:30:31.121Z,430.90
2018-03-30T04:31:31.264Z,262.10
2018-03-30T04:32:31.409Z,313.20
2018-03-30T04:33:31.557Z,296.20
2018-03-30T04:34:31.702Z,278.20
2018-03-30T04:35:31.844Z,405.10
2018-03-30T04:36:31.989Z,460.10
2018-03-30T04:37:32.179Z,280.00
2018-03-30T04:38:32.282Z,349.80
2018-03-30T04:39:32.424Z,400.70
2018-03-30T04:40:32.591Z,297.00
2018-03-30T04:41:32.714Z,423.00
2018-03-30T04:42:32.861Z,333.80
2018-03-30T04:43:33.005Z,525.40
2018-03-30T04:44:33.148Z,392.70
2018-03-30T04:45:33.298Z,379.00
2018-03-30T04:46:33.444Z,170.30
2018-03-30T04:47:33.585Z,437.00
2018-03-30T04:48:33.728Z,378.40
2018-03-30T04:49:33.875Z,389.10
2018-03-30T04:50:34.019Z,309.30
2018-03-30T04:51:34.167Z,371.60
2018-03-30T04:52:34.314Z,381.30
2018-03-30T04:53:34.456Z,375.60
2018-03-30T04:54:34.600Z,428.30
2018-03-30T04:55:34.747Z,394.10
2018-03-30T04:56:34.895Z,367.90
2018-03-30T04:57:35.041Z,306.30
2018-03-30T04:58:35.187Z,324.20
2018-03-30T04:59:35.334Z,418.90
2018-03-30T05:00:35.476Z,428.00
2018-03-30T05:01:35.623Z,190.10
2018-03-30T05:02:35.766Z,311.90
2018-03-30T05:03:35.911Z,160.50
2018-03-30T05:04:36.057Z,100.80
2018-03-30T05:05:36.201Z,140.70
2018-03-30T05:06:36.346Z,292.40
2018-03-30T05:07:36.494Z,151.70
2018-03-30T05:08:36.640Z,232.10
2018-03-30T05:09:36.783Z,152.20
2018-03-30T05:10:36.928Z,199.20
2018-03-30T05:11:37.072Z,93.50
2018-03-30T05:12:37.220Z,81.60
2018-03-30T05:13:37.364Z,310.30
2018-03-30T05:14:37.508Z,377.70
2018-03-30T05:15:37.652Z,191.10
2018-03-30T05:16:37.796Z,320.60
2018-03-30T05:17:37.942Z,321.00
2018-03-30T05:18:38.089Z,184.20
2018-03-30T05:19:38.233Z,158.20
2018-03-30T05:20:38.378Z,262.80
2018-03-30T05:21:38.522Z,284.40
2018-03-30T05:22:38.666Z,180.20
2018-03-30T05:23:38.812Z,314.70
2018-03-30T05:24:38.960Z,268.70
2018-03-30T05:25:39.110Z,324.70
2018-03-30T05:26:39.253Z,241.40
2018-03-30T05:27:39.399Z,219.20
2018-03-30T05:28:39.542Z,104.90
2018-03-30T05:29:39.688Z,218.10
2018-03-30T05:30:39.837Z,200.90
2018-03-30T05:31:39.984Z,207.10
2018-03-30T05:32:40.131Z,307.10
2018-03-30T05:33:40.274Z,218.70
2018-03-30T05:34:40.417Z,306.10
2018-03-30T05:35:40.561Z,233.70
2018-03-30T05:36:40.703Z,321.00
2018-03-30T05:37:40.851Z,436.70
2018-03-30T05:38:40.997Z,242.90
2018-03-30T05:39:41.180Z,431.90
2018-03-30T05:40:41.286Z,375.70
2018-03-30T05:41:41.433Z,253.00
2018-03-30T05:42:41.580Z,364.90
2018-03-30T05:43:41.725Z,497.20
2018-03-30T05:44:41.876Z,214.60
2018-03-30T05:45:42.014Z,195.40
2018-03-30T05:46:42.164Z,346.70
2018-03-30T05:47:42.304Z,690.40
2018-03-30T05:48:42.452Z,248.70
2018-03-30T05:49:42.597Z,198.30
2018-03-30T05:50:42.749Z,353.10
2018-03-30T05:51:42.887Z,172.30
2018-03-30T05:52:43.033Z,184.00
2018-03-30T05:53:43.181Z,147.10
2018-03-30T05:54:43.323Z,85.90
2018-03-30T05:55:43.471Z,115.00
2018-03-30T05:56:43.625Z,139.70
2018-03-30T05:57:43.761Z,209.70
2018-03-30T05:58:43.906Z,178.50
2018-03-30T05:59:44.052Z,104.00
2018-03-30T06:00:44.194Z,111.10
2018-03-30T06:01:44.341Z,212.70
2018-03-30T06:02:44.482Z,146.40
2018-03-30T06:03:44.627Z,165.30
2018-03-30T06:04:44.772Z,293.20
2018-03-30T06:05:44.919Z,263.30
2018-03-30T06:06:45.063Z,292.20
2018-03-30T06:07:45.205Z,169.20
2018-03-30T06:08:45.352Z,122.90
2018-03-30T06:09:45.553Z,332.60
2018-03-30T06:10:45.643Z,462.70
2018-03-30T06:11:45.790Z,107.60
2018-03-30T06:12:45.935Z,154.20
2018-03-30T06:13:46.079Z,153.00
2018-03-30T06:14:46.228Z,101.80
2018-03-30T06:15:46.370Z,90.10
2018-03-30T06:16:46.516Z,112.10
2018-03-30T06:17:46.661Z,119.30
2018-03-30T06:18:46.809Z,227.40
2018-03-30T06:19:46.953Z,68.70
2018-03-30T06:20:47.098Z,109.90
2018-03-30T06:21:47.244Z,60.40
2018-03-30T06:22:47.389Z,139.10
2018-03-30T06:23:47.537Z,91.50
2018-03-30T06:24:47.684Z,123.80
2018-03-30T06:25:47.830Z,93.70
2018-03-30T06:26:47.977Z,72.80
2018-03-30T06:27:48.120Z,112.10
2018-03-30T06:28:48.269Z,245.50
2018-03-30T06:29:48.413Z,373.40
2018-03-30T06:30:48.558Z,418.10
2018-03-30T06:31:48.704Z,339.10
2018-03-30T06:32:48.846Z,311.20
2018-03-30T06:33:48.994Z,191.40
2018-03-30T06:34:49.140Z,239.30
2018-03-30T06:35:49.287Z,302.60
2018-03-30T06:36:49.435Z,443.70
2018-03-30T06:37:49.585Z,377.50
2018-03-30T06:38:49.724Z,419.70
2018-03-30T06:39:49.869Z,385.20
2018-03-30T06:40:50.017Z,374.90
2018-03-30T06:41:50.164Z,351.40
2018-03-30T06:42:50.308Z,251.80
2018-03-30T06:43:50.457Z,390.80
2018-03-30T06:44:50.600Z,305.20
2018-03-30T06:45:50.747Z,253.20
2018-03-30T06:46:50.892Z,283.40
2018-03-30T06:47:51.038Z,107.20
2018-03-30T06:48:51.182Z,335.00
2018-03-30T06:49:51.371Z,320.60
2018-03-30T06:50:51.475Z,175.30
2018-03-30T06:51:51.621Z,134.60
2018-03-30T06:52:51.766Z,203.20
2018-03-30T06:53:51.923Z,63.40
2018-03-30T06:54:52.044Z,52.50
2018-03-30T06:55:52.193Z,226.50
2018-03-30T06:56:52.343Z,313.40
2018-03-30T06:57:52.486Z,434.00
2018-03-30T06:58:52.630Z,412.20
2018-03-30T06:59:52.777Z,366.70
2018-03-30T07:00:52.924Z,306.80
2018-03-30T07:01:53.069Z,303.40
2018-03-30T07:02:53.217Z,231.10
2018-03-30T07:03:53.362Z,318.10
2018-03-30T07:04:53.511Z,434.60
2018-03-30T07:05:53.656Z,445.60
2018-03-30T07:06:53.808Z,211.20
2018-03-30T07:07:53.951Z,295.20
2018-03-30T07:08:54.096Z,473.30
2018-03-30T07:09:54.244Z,559.40
2018-03-30T07:10:54.391Z,474.30
2018-03-30T07:11:54.540Z,298.50
2018-03-30T07:12:54.684Z,445.00
2018-03-30T07:13:54.832Z,354.70
2018-03-30T07:14:54.979Z,466.70
2018-03-30T07:15:55.124Z,397.90
2018-03-30T07:16:55.268Z,494.30
2018-03-30T07:17:55.414Z,168.10
2018-03-30T07:18:55.561Z,242.60
2018-03-30T07:19:55.708Z,506.20
2018-03-30T07:20:55.851Z,504.40
2018-03-30T07:21:56.001Z,88.50
2018-03-30T07:22:56.147Z,121.70
2018-03-30T07:23:56.291Z,69.50
2018-03-30T07:24:56.437Z,51.20
2018-03-30T07:25:56.584Z,55.30
2018-03-30T07:26:56.733Z,42.70
2018-03-30T07:27:56.875Z,51.10
2018-03-30T07:28:57.023Z,198.60
2018-03-30T07:29:57.172Z,57.10
2018-03-30T07:30:57.317Z,49.00
2018-03-30T07:31:57.467Z,42.90
2018-03-30T07:32:57.606Z,42.00
2018-03-30T07:33:57.753Z,40.90
2018-03-30T07:34:57.902Z,35.00
2018-03-30T07:35:58.051Z,35.90
2018-03-30T07:36:58.201Z,34.10
2018-03-30T07:37:58.347Z,38.10
2018-03-30T07:38:58.492Z,36.20
2018-03-30T07:39:58.645Z,33.80
2018-03-30T07:40:58.788Z,36.30
2018-03-30T07:41:58.938Z,37.10
2018-03-30T07:42:59.084Z,36.40
2018-03-30T07:43:59.230Z,34.10
2018-03-30T07:44:59.377Z,29.50
2018-03-30T07:45:59.523Z,29.80
2018-03-30T07:46:59.672Z,28.70
2018-03-30T07:47:59.815Z,26.80
2018-03-30T07:48:59.969Z,25.50
2018-03-30T07:50:00.176Z,28.20
2018-03-30T07:51:00.265Z,29.80
2018-03-30T07:52:00.412Z,29.20
2018-03-30T07:53:00.564Z,30.70
2018-03-30T07:54:00.712Z,33.60
2018-03-30T07:55:00.857Z,32.00
2018-03-30T07:56:01.003Z,33.90
2018-03-30T07:57:01.149Z,31.90
2018-03-30T07:58:01.299Z,31.00
2018-03-30T07:59:01.446Z,29.70
2018-03-30T08:00:01.592Z,26.70
2018-03-30T08:01:01.737Z,23.40
2018-03-30T08:02:01.906Z,23.30
2018-03-30T08:03:02.030Z,21.50
2018-03-30T08:04:02.175Z,21.70
2018-03-30T08:05:02.323Z,21.70
2018-03-30T08:06:02.471Z,21.20
2018-03-30T08:07:02.616Z,21.00
2018-03-30T08:08:02.768Z,21.90
2018-03-30T08:09:02.947Z,23.20
2018-03-30T08:10:03.066Z,22.90
2018-03-30T08:11:03.203Z,23.30
2018-03-30T08:12:03.349Z,21.90
2018-03-30T08:13:03.498Z,22.50
2018-03-30T08:14:03.646Z,22.90
2018-03-30T08:15:03.793Z,21.70
2018-03-30T08:16:03.940Z,21.30
2018-03-30T08:17:04.090Z,18.00
2018-03-30T08:18:04.237Z,19.30
2018-03-30T08:19:04.383Z,17.50
2018-03-30T08:20:04.530Z,18.00
2018-03-30T08:21:04.687Z,18.30
2018-03-30T08:22:04.826Z,17.50
2018-03-30T08:23:04.974Z,18.20
2018-03-30T08:24:05.120Z,17.10
2018-03-30T08:25:05.268Z,17.60
2018-03-30T08:26:05.418Z,17.80
2018-03-30T08:27:05.566Z,18.30
2018-03-30T08:28:05.802Z,22.10
2018-03-30T08:29:05.854Z,21.20
2018-03-30T08:30:06.005Z,19.70
2018-03-30T08:31:06.152Z,16.60
2018-03-30T08:32:06.302Z,16.70
2018-03-30T08:33:06.450Z,16.10
2018-03-30T08:34:06.700Z,17.50
2018-03-30T08:35:06.779Z,17.90
2018-03-30T08:36:06.929Z,17.50
2018-03-30T08:37:07.073Z,17.00
2018-03-30T08:38:07.219Z,16.20
2018-03-30T08:39:07.368Z,15.90
2018-03-30T08:40:07.519Z,16.40
2018-03-30T08:41:07.668Z,17.40
2018-03-30T08:42:07.818Z,17.10
2018-03-30T08:43:07.965Z,16.60
2018-03-30T08:44:08.115Z,16.60
2018-03-30T08:45:08.265Z,15.90
2018-03-30T08:46:08.414Z,16.50
2018-03-30T08:47:08.562Z,16.60
2018-03-30T08:48:08.712Z,17.20
2018-03-30T08:49:08.858Z,16.00
2018-03-30T08:50:09.009Z,16.10
2018-03-30T08:51:09.158Z,15.60
2018-03-30T08:52:09.306Z,15.30
2018-03-30T08:53:09.456Z,17.20
2018-03-30T08:54:09.606Z,17.10
2018-03-30T08:55:09.753Z,17.80
2018-03-30T08:56:09.907Z,16.80
2018-03-30T08:57:10.049Z,16.60
2018-03-30T08:58:10.199Z,16.60
2018-03-30T08:59:10.348Z,15.70
2018-03-30T09:00:10.495Z,15.60
2018-03-30T09:01:10.646Z,15.50
2018-03-30T09:02:10.824Z,15.50
2018-03-30T09:03:10.946Z,15.70
2018-03-30T09:04:11.094Z,16.20
2018-03-30T09:05:11.247Z,15.80
2018-03-30T09:06:11.392Z,16.00
2018-03-30T09:07:11.540Z,15.40
2018-03-30T09:08:11.696Z,15.50
2018-03-30T09:09:11.853Z,16.40
2018-03-30T09:10:12.001Z,16.60
2018-03-30T09:11:12.148Z,17.60
2018-03-30T09:12:12.298Z,18.10
2018-03-30T09:13:12.448Z,17.20
2018-03-30T09:14:12.601Z,16.10
2018-03-30T09:15:12.751Z,16.10
2018-03-30T09:16:12.901Z,15.30
2018-03-30T09:17:13.043Z,16.10
2018-03-30T09:18:13.200Z,15.20
2018-03-30T09:19:13.347Z,15.10
2018-03-30T09:20:13.496Z,16.40
2018-03-30T09:21:13.644Z,16.90
2018-03-30T09:22:13.794Z,16.00
2018-03-30T09:23:13.944Z,15.80
2018-03-30T09:24:14.103Z,15.70
2018-03-30T09:25:14.253Z,16.10
2018-03-30T09:26:14.402Z,15.70
2018-03-30T09:27:14.559Z,15.70
2018-03-30T09:28:14.704Z,15.00
2018-03-30T09:29:14.854Z,15.00
2018-03-30T09:30:15.003Z,14.30
2018-03-30T09:31:15.152Z,12.80
2018-03-30T09:32:15.300Z,14.30
2018-03-30T09:33:15.452Z,14.80
2018-03-30T09:34:15.604Z,14.50
2018-03-30T09:35:15.762Z,13.40
2018-03-30T09:36:15.914Z,13.80
2018-03-30T09:37:16.064Z,14.20
2018-03-30T09:38:16.212Z,12.60
2018-03-30T09:39:16.362Z,12.60
2018-03-30T09:40:16.514Z,13.30
2018-03-30T09:41:16.666Z,13.50
2018-03-30T09:42:16.817Z,13.30
2018-03-30T09:43:16.967Z,12.90
2018-03-30T09:44:17.118Z,13.20
2018-03-30T09:45:17.269Z,12.80
2018-03-30T09:46:17.425Z,12.30
2018-03-30T09:47:17.576Z,11.00
2018-03-30T09:48:17.726Z,10.60
2018-03-30T09:49:17.881Z,10.70
2018-03-30T09:50:18.026Z,11.00
2018-03-30T09:51:18.187Z,10.90
2018-03-30T09:52:18.340Z,10.40
2018-03-30T09:53:18.488Z,10.50
2018-03-30T09:54:18.639Z,9.70
2018-03-30T09:55:18.789Z,10.30
2018-03-30T09:56:18.940Z,10.50
2018-03-30T09:57:19.090Z,10.40
2018-03-30T09:58:19.242Z,12.70
2018-03-30T09:59:19.391Z,10.60
2018-03-30T10:00:19.544Z,10.60
2018-03-30T10:01:19.698Z,11.40
2018-03-30T10:02:19.849Z,11.30
2018-03-30T10:03:19.999Z,11.30
2018-03-30T10:04:20.177Z,12.50
2018-03-30T10:05:20.323Z,12.20
2018-03-30T10:06:20.470Z,12.70
2018-03-30T10:07:20.625Z,13.40
2018-03-30T10:08:20.778Z,13.50
2018-03-30T10:09:20.928Z,13.60
2018-03-30T10:10:21.079Z,14.30
2018-03-30T10:11:21.231Z,14.10
2018-03-30T10:12:21.384Z,14.40
2018-03-30T10:13:21.561Z,13.40
2018-03-30T10:14:21.690Z,13.70
2018-03-30T10:15:21.847Z,14.30
2018-03-30T10:16:21.994Z,14.30
2018-03-30T10:17:22.148Z,14.10
2018-03-30T10:18:22.299Z,14.20
2018-03-30T10:19:22.452Z,14.60
2018-03-30T10:20:22.608Z,14.40
2018-03-30T10:21:22.755Z,14.20
2018-03-30T10:22:22.907Z,13.80
2018-03-30T10:23:23.062Z,15.70
2018-03-30T10:24:23.209Z,14.40
2018-03-30T10:25:23.353Z,14.40
2018-03-30T10:26:23.544Z,14.80
2018-03-30T10:27:23.651Z,14.20
2018-03-30T10:28:23.804Z,14.40
2018-03-30T10:29:23.956Z,14.70
2018-03-30T10:30:24.108Z,14.50
2018-03-30T10:31:24.261Z,14.30
2018-03-30T10:32:24.418Z,14.90
2018-03-30T10:33:24.568Z,14.90
2018-03-30T10:34:24.722Z,14.70
2018-03-30T10:35:24.875Z,13.90
2018-03-30T10:36:25.027Z,15.90
2018-03-30T10:37:25.180Z,16.20
2018-03-30T10:38:25.333Z,15.90
2018-03-30T10:39:25.486Z,17.70
2018-03-30T10:40:25.640Z,16.00
2018-03-30T10:41:25.791Z,15.30
2018-03-30T10:42:25.946Z,13.80
2018-03-30T10:43:26.098Z,13.90
2018-03-30T10:44:26.251Z,14.00
2018-03-30T10:45:26.403Z,13.60
2018-03-30T10:46:26.606Z,14.30
2018-03-30T10:47:26.710Z,13.80
2018-03-30T10:48:26.866Z,13.50
2018-03-30T10:49:27.021Z,13.40
2018-03-30T10:50:27.198Z,13.20
2018-03-30T10:51:27.435Z,12.90
2018-03-30T10:52:27.701Z,13.10
2018-03-30T10:53:27.757Z,13.60
2018-03-30T10:54:27.753Z,12.40
2018-03-30T10:55:27.930Z,13.10
2018-03-30T10:56:28.051Z,13.50
2018-03-30T10:57:28.209Z,11.70
2018-03-30T10:58:28.359Z,12.10
2018-03-30T10:59:28.516Z,11.70
2018-03-30T11:00:28.666Z,12.50
2018-03-30T11:01:28.856Z,12.70
2018-03-30T11:02:28.964Z,12.90
2018-03-30T11:03:29.112Z,12.10
2018-03-30T11:04:29.280Z,12.20
2018-03-30T11:05:29.434Z,12.00
2018-03-30T11:06:29.587Z,11.40
2018-03-30T11:07:29.737Z,11.80
2018-03-30T11:08:29.890Z,12.10
2018-03-30T11:09:30.039Z,11.30
2018-03-30T11:10:30.193Z,13.20
2018-03-30T11:11:30.345Z,11.10
2018-03-30T11:12:30.498Z,10.70
2018-03-30T11:13:30.652Z,11.10
2018-03-30T11:14:30.818Z,10.60
2018-03-30T11:15:30.962Z,10.00
2018-03-30T11:16:31.120Z,10.20
2018-03-30T11:17:31.278Z,9.70
2018-03-30T11:18:31.419Z,9.40
2018-03-30T11:19:31.554Z,9.70
2018-03-30T11:20:31.724Z,9.10
2018-03-30T11:21:31.871Z,8.80
2018-03-30T11:22:32.006Z,9.10
2018-03-30T11:23:32.148Z,8.40
2018-03-30T11:24:32.298Z,8.00
2018-03-30T11:25:32.492Z,7.70
2018-03-30T11:26:32.596Z,7.70
2018-03-30T11:27:32.749Z,8.10
2018-03-30T11:28:32.907Z,7.80
2018-03-30T11:29:33.055Z,8.00
2018-03-30T11:30:33.207Z,8.20
2018-03-30T11:31:33.354Z,7.70
2018-03-30T11:32:33.497Z,7.50
2018-03-30T11:33:33.659Z,7.60
2018-03-30T11:34:33.797Z,7.30
2018-03-30T11:35:33.956Z,7.50
2018-03-30T11:36:34.099Z,7.70
2018-03-30T11:37:34.249Z,7.10
2018-03-30T11:38:34.402Z,7.20
2018-03-30T11:39:34.552Z,6.80
2018-03-30T11:40:34.702Z,7.00
2018-03-30T11:41:34.865Z,7.00
2018-03-30T11:42:34.997Z,6.70
2018-03-30T11:43:35.152Z,6.40
2018-03-30T11:44:35.304Z,7.10
2018-03-30T11:45:35.456Z,6.20
2018-03-30T11:46:35.615Z,6.60
2018-03-30T11:47:35.765Z,6.60
2018-03-30T11:48:35.925Z,7.10
2018-03-30T11:49:36.075Z,6.80
2018-03-30T11:50:36.229Z,6.40
2018-03-30T11:51:36.383Z,6.30
2018-03-30T11:52:36.537Z,6.20
2018-03-30T11:53:36.690Z,6.30
2018-03-30T11:54:36.843Z,5.90
2018-03-30T11:55:37.000Z,6.30
2018-03-30T11:56:37.155Z,6.30
2018-03-30T11:57:37.309Z,5.90
2018-03-30T11:58:37.467Z,6.10
2018-03-30T11:59:37.620Z,6.10
2018-03-30T12:00:37.777Z,5.80
2018-03-30T12:01:37.928Z,5.60
2018-03-30T12:02:38.087Z,6.00
2018-03-30T12:03:38.241Z,5.50
2018-03-30T12:04:38.394Z,5.40
2018-03-30T12:05:38.549Z,5.40
2018-03-30T12:06:38.711Z,5.30
2018-03-30T12:07:38.861Z,5.70
2018-03-30T12:08:39.018Z,5.40
2018-03-30T12:09:39.184Z,5.30
2018-03-30T12:10:39.334Z,4.80
2018-03-30T12:11:39.482Z,5.00
2018-03-30T12:12:39.643Z,5.60
2018-03-30T12:13:39.796Z,5.10
2018-03-30T12:14:39.950Z,5.70
2018-03-30T12:15:40.106Z,6.10
2018-03-30T12:16:40.260Z,5.70
2018-03-30T12:17:40.413Z,4.70
2018-03-30T12:18:40.570Z,5.80
2018-03-30T12:19:40.724Z,5.60
2018-03-30T12:20:40.881Z,5.30
2018-03-30T12:21:41.042Z,5.00
2018-03-30T12:22:41.206Z,5.00
2018-03-30T12:23:41.366Z,5.60
2018-03-30T12:24:41.518Z,5.60
2018-03-30T12:25:41.668Z,4.60
2018-03-30T12:26:41.825Z,5.50
2018-03-30T12:27:41.980Z,5.40
2018-03-30T12:28:42.133Z,6.00
2018-03-30T12:29:42.290Z,5.30
2018-03-30T12:30:42.447Z,5.30
2018-03-30T12:31:42.602Z,5.50
2018-03-30T12:32:42.754Z,5.40
2018-03-30T12:33:42.911Z,5.70
2018-03-30T12:34:43.070Z,5.60
2018-03-30T12:35:43.224Z,5.30
2018-03-30T12:36:43.378Z,5.00
2018-03-30T12:37:43.534Z,5.30
2018-03-30T12:38:43.685Z,5.80
2018-03-30T12:39:43.843Z,6.50
2018-03-30T12:40:43.998Z,6.10
2018-03-30T12:41:44.153Z,5.20
2018-03-30T12:42:44.309Z,5.40
2018-03-30T12:43:44.463Z,5.40
2018-03-30T12:44:44.623Z,5.70
2018-03-30T12:45:44.778Z,5.00
2018-03-30T12:46:44.931Z,5.30